createdAt,value
2018-06-30T00:00:34.742Z,1.97
2018-06-30T00:03:02.726Z,1.70
2018-06-30T00:05:30.726Z,1.83
2018-06-30T00:07:58.761Z,1.60
2018-06-30T00:10:28.498Z,1.80
2018-06-30T00:12:57.558Z,1.97
2018-06-30T00:15:25.767Z,1.80
2018-06-30T00:17:53.829Z,1.93
2018-06-30T00:20:21.918Z,1.83
2018-06-30T00:22:49.925Z,1.67
2018-06-30T00:25:17.955Z,1.70
2018-06-30T00:27:45.988Z,1.63
2018-06-30T00:30:14.084Z,1.70
2018-06-30T00:32:42.136Z,2.07
2018-06-30T00:35:10.207Z,1.67
2018-06-30T00:37:38.186Z,1.70
2018-06-30T00:40:06.218Z,1.50
2018-06-30T00:42:34.244Z,1.80
2018-06-30T00:45:02.308Z,1.83
2018-06-30T00:47:30.568Z,1.70
2018-06-30T00:49:58.544Z,1.90
2018-06-30T00:52:26.646Z,1.53
2018-06-30T00:54:54.764Z,1.50
2018-06-30T00:57:22.839Z,1.80
2018-06-30T00:59:50.887Z,1.90
2018-06-30T01:02:18.993Z,1.63
2018-06-30T01:04:47.010Z,1.93
2018-06-30T01:07:14.999Z,2.00
2018-06-30T01:09:43.031Z,1.63
2018-06-30T01:12:11.112Z,1.60
2018-06-30T01:14:39.164Z,1.60
2018-06-30T01:17:07.686Z,1.80
2018-06-30T01:19:35.692Z,1.70
2018-06-30T01:22:03.865Z,1.60
2018-06-30T01:24:31.847Z,1.60
2018-06-30T01:26:59.943Z,1.97
2018-06-30T01:29:27.894Z,1.83
2018-06-30T01:31:55.904Z,2.20
2018-06-30T01:34:23.962Z,1.93
2018-06-30T01:36:51.995Z,1.65
2018-06-30T01:39:20.032Z,1.80
2018-06-30T01:41:48.120Z,1.83
2018-06-30T01:44:16.197Z,1.70
2018-06-30T01:46:51.769Z,1.50
2018-06-30T01:49:19.807Z,1.70
2018-06-30T01:51:47.866Z,1.80
2018-06-30T01:54:15.868Z,1.60
2018-06-30T01:56:43.858Z,1.70
2018-06-30T01:59:12.027Z,1.90
2018-06-30T02:01:40.032Z,2.00
2018-06-30T02:04:08.070Z,2.03
2018-06-30T02:06:36.246Z,1.70
2018-06-30T02:09:06.147Z,1.87
2018-06-30T02:11:34.171Z,1.90
2018-06-30T02:14:02.182Z,1.83
2018-06-30T02:16:30.182Z,1.80
2018-06-30T02:18:58.225Z,1.80
2018-06-30T02:21:26.282Z,1.73
2018-06-30T02:23:54.296Z,1.60
2018-06-30T02:26:22.414Z,1.53
2018-06-30T02:28:50.443Z,1.70
2018-06-30T02:31:18.489Z,2.13
2018-06-30T02:33:46.526Z,1.70
2018-06-30T02:36:14.514Z,1.70
2018-06-30T02:38:42.637Z,2.00
2018-06-30T02:41:10.676Z,1.73
2018-06-30T02:43:38.663Z,2.00
2018-06-30T02:46:06.767Z,1.85
2018-06-30T02:48:34.772Z,1.50
2018-06-30T02:51:02.840Z,1.93
2018-06-30T02:53:30.843Z,1.60
2018-06-30T02:55:58.848Z,1.93
2018-06-30T02:58:27.075Z,1.70
2018-06-30T03:00:55.141Z,1.60
2018-06-30T03:03:23.298Z,1.40
2018-06-30T03:05:51.336Z,1.50
2018-06-30T03:08:19.332Z,1.87
2018-06-30T03:10:47.380Z,1.63
2018-06-30T03:13:15.476Z,1.27
2018-06-30T03:15:43.524Z,1.67
2018-06-30T03:18:11.625Z,1.67
2018-06-30T03:20:39.681Z,1.50
2018-06-30T03:23:07.974Z,1.40
2018-06-30T03:25:36.138Z,1.47
2018-06-30T03:28:04.281Z,1.60
2018-06-30T03:30:32.337Z,1.60
2018-06-30T03:33:00.331Z,1.67
2018-06-30T03:35:28.365Z,1.83
2018-06-30T03:38:00.255Z,1.50
2018-06-30T03:40:28.260Z,1.30
2018-06-30T03:42:56.569Z,1.60
2018-06-30T03:45:24.560Z,1.50
2018-06-30T03:47:52.589Z,2.07
2018-06-30T03:50:20.611Z,1.70
2018-06-30T03:52:48.659Z,1.50
2018-06-30T03:55:16.739Z,1.50
2018-06-30T03:57:44.732Z,1.37
2018-06-30T04:00:12.779Z,1.57
2018-06-30T04:02:40.812Z,1.60
2018-06-30T04:05:14.294Z,1.30
2018-06-30T04:07:45.451Z,1.60
2018-06-30T04:10:13.440Z,1.40
2018-06-30T04:12:41.459Z,1.30
2018-06-30T04:15:09.530Z,1.53
2018-06-30T04:17:37.585Z,1.63
2018-06-30T04:20:05.645Z,1.63
2018-06-30T04:22:33.688Z,2.10
2018-06-30T04:25:01.679Z,1.47
2018-06-30T04:27:30.798Z,1.30
2018-06-30T04:29:58.772Z,1.60
2018-06-30T04:32:26.790Z,1.60
2018-06-30T04:34:54.975Z,1.43
2018-06-30T04:37:23.007Z,1.60
2018-06-30T04:39:51.015Z,1.40
2018-06-30T04:42:19.252Z,1.50
2018-06-30T04:44:47.284Z,1.47
2018-06-30T04:47:15.473Z,1.73
2018-06-30T04:49:43.463Z,1.30
2018-06-30T04:52:12.495Z,1.30
2018-06-30T04:54:40.553Z,1.30
2018-06-30T04:57:08.605Z,1.60
2018-06-30T04:59:36.582Z,1.43
2018-06-30T05:02:05.709Z,1.37
2018-06-30T05:04:33.987Z,1.70
2018-06-30T05:07:02.000Z,1.23
2018-06-30T05:09:30.127Z,1.20
2018-06-30T05:11:58.182Z,1.23
2018-06-30T05:14:26.171Z,1.60
2018-06-30T05:16:54.134Z,1.50
2018-06-30T05:19:22.133Z,1.50
2018-06-30T05:21:50.167Z,1.20
2018-06-30T05:24:18.144Z,1.50
2018-06-30T05:26:46.320Z,1.27
2018-06-30T05:29:14.343Z,1.63
2018-06-30T05:31:42.374Z,1.20
2018-06-30T05:34:10.411Z,1.50
2018-06-30T05:36:38.448Z,1.40
2018-06-30T05:39:07.000Z,1.13
2018-06-30T05:41:35.001Z,1.30
2018-06-30T05:44:03.386Z,1.53
2018-06-30T05:46:31.455Z,1.20
2018-06-30T05:48:59.532Z,1.10
2018-06-30T05:51:27.643Z,1.13
2018-06-30T05:53:55.671Z,1.30
2018-06-30T05:56:23.695Z,1.40
2018-06-30T05:58:51.647Z,1.50
2018-06-30T06:01:19.755Z,1.33
2018-06-30T06:03:47.786Z,1.47
2018-06-30T06:06:16.828Z,1.50
2018-06-30T06:08:44.850Z,1.73
2018-06-30T06:11:14.831Z,1.53
2018-06-30T06:13:42.877Z,1.27
2018-06-30T06:16:10.910Z,1.50
2018-06-30T06:18:39.016Z,1.40
2018-06-30T06:21:08.062Z,1.50
2018-06-30T06:23:36.061Z,1.30
2018-06-30T06:26:04.177Z,1.27
2018-06-30T06:28:32.208Z,2.07
2018-06-30T06:31:01.368Z,1.30
2018-06-30T06:33:29.395Z,1.43
2018-06-30T06:35:57.456Z,1.30
2018-06-30T06:38:25.505Z,1.30
2018-06-30T06:40:53.539Z,1.27
2018-06-30T06:43:21.525Z,1.00
2018-06-30T06:45:49.496Z,1.30
2018-06-30T06:48:17.534Z,1.17
2018-06-30T06:50:45.612Z,1.10
2018-06-30T06:53:13.865Z,1.20
2018-06-30T06:55:41.888Z,0.93
2018-06-30T06:58:09.877Z,1.20
2018-06-30T07:00:37.857Z,1.00
2018-06-30T07:03:05.942Z,1.50
2018-06-30T07:05:33.904Z,1.00
2018-06-30T07:08:01.959Z,1.60
2018-06-30T07:10:29.999Z,1.10
2018-06-30T07:12:58.000Z,1.43
2018-06-30T07:15:26.089Z,1.13
2018-06-30T07:17:54.103Z,1.10
2018-06-30T07:20:22.133Z,1.00
2018-06-30T07:22:50.185Z,1.10
2018-06-30T07:25:18.281Z,1.00
2018-06-30T07:27:46.332Z,0.83
2018-06-30T07:30:14.393Z,1.10
2018-06-30T07:32:42.628Z,0.90
2018-06-30T07:35:10.660Z,1.03
2018-06-30T07:37:38.703Z,1.20
2018-06-30T07:40:07.860Z,1.20
2018-06-30T07:42:36.276Z,1.07
2018-06-30T07:45:04.298Z,1.20
2018-06-30T07:47:32.322Z,1.10
2018-06-30T07:50:00.471Z,1.30
2018-06-30T07:52:28.482Z,1.27
2018-06-30T07:54:56.546Z,1.00
2018-06-30T07:57:24.587Z,1.00
2018-06-30T07:59:52.624Z,1.17
2018-06-30T08:02:20.686Z,1.20
2018-06-30T08:04:48.646Z,1.10
2018-06-30T08:07:16.793Z,1.00
2018-06-30T08:09:44.850Z,1.07
2018-06-30T08:12:12.896Z,1.00
2018-06-30T08:14:41.144Z,1.00
2018-06-30T08:17:09.155Z,1.10
2018-06-30T08:19:37.113Z,1.10
2018-06-30T08:22:05.137Z,1.10
2018-06-30T08:24:33.246Z,1.40
2018-06-30T08:27:01.313Z,1.00
2018-06-30T08:29:29.321Z,1.40
2018-06-30T08:31:57.475Z,1.07
2018-06-30T08:34:25.519Z,1.17
2018-06-30T08:36:54.539Z,1.20
2018-06-30T08:39:22.550Z,1.10
2018-06-30T08:41:50.799Z,1.17
2018-06-30T08:44:18.825Z,1.47
2018-06-30T08:46:46.807Z,0.90
2018-06-30T08:49:14.847Z,1.50
2018-06-30T08:51:43.402Z,1.13
2018-06-30T08:54:11.525Z,1.30
2018-06-30T08:56:39.730Z,1.13
2018-06-30T08:59:07.749Z,1.13
2018-06-30T09:01:35.737Z,1.30
2018-06-30T09:04:04.929Z,1.10
2018-06-30T09:06:33.039Z,1.10
2018-06-30T09:09:01.070Z,1.30
2018-06-30T09:11:29.115Z,1.50
2018-06-30T09:13:57.187Z,1.23
2018-06-30T09:16:25.205Z,1.20
2018-06-30T09:18:53.267Z,1.20
2018-06-30T09:21:21.340Z,1.30
2018-06-30T09:23:49.366Z,1.30
2018-06-30T09:26:18.354Z,1.20
2018-06-30T09:28:46.345Z,1.10
2018-06-30T09:31:14.407Z,1.17
2018-06-30T09:33:42.448Z,1.20
2018-06-30T09:36:11.030Z,1.30
2018-06-30T09:38:39.114Z,1.17
2018-06-30T09:41:07.358Z,1.20
2018-06-30T09:43:35.404Z,1.20
2018-06-30T09:46:03.384Z,1.13
2018-06-30T09:48:31.402Z,1.03
2018-06-30T09:50:59.417Z,1.40
2018-06-30T09:53:27.470Z,1.10
2018-06-30T09:55:55.462Z,1.30
2018-06-30T09:58:23.619Z,1.20
2018-06-30T10:00:57.182Z,1.27
2018-06-30T10:03:25.514Z,1.30
2018-06-30T10:05:53.559Z,1.13
2018-06-30T10:08:21.737Z,1.43
2018-06-30T10:10:49.690Z,1.00
2018-06-30T10:13:17.716Z,1.40
2018-06-30T10:15:45.775Z,1.20
2018-06-30T10:18:13.789Z,1.10
2018-06-30T10:20:41.875Z,1.30
2018-06-30T10:23:09.866Z,1.20
2018-06-30T10:25:37.884Z,1.40
2018-06-30T10:28:05.883Z,1.23
2018-06-30T10:30:34.077Z,1.30
2018-06-30T10:33:02.143Z,1.20
2018-06-30T10:35:30.207Z,1.40
2018-06-30T10:37:58.309Z,1.37
2018-06-30T10:40:26.312Z,1.27
2018-06-30T10:42:54.331Z,1.20
2018-06-30T10:45:22.356Z,1.10
2018-06-30T10:47:50.385Z,1.20
2018-06-30T10:50:18.379Z,1.20
2018-06-30T10:52:46.366Z,1.10
2018-06-30T10:55:14.476Z,1.20
2018-06-30T10:57:42.555Z,1.27
2018-06-30T11:00:10.645Z,1.27
2018-06-30T11:02:38.869Z,1.57
2018-06-30T11:05:07.177Z,1.07
2018-06-30T11:07:35.141Z,1.20
2018-06-30T11:10:03.167Z,1.00
2018-06-30T11:12:31.322Z,1.27
2018-06-30T11:14:59.393Z,1.53
2018-06-30T11:17:27.398Z,2.00
2018-06-30T11:19:55.500Z,1.20
2018-06-30T11:22:23.560Z,1.40
2018-06-30T11:24:51.637Z,1.20
2018-06-30T11:27:19.720Z,1.40
2018-06-30T11:29:47.734Z,1.33
2018-06-30T11:32:15.766Z,1.37
2018-06-30T11:34:43.787Z,1.40
2018-06-30T11:37:11.891Z,1.50
2018-06-30T11:39:40.046Z,1.40
2018-06-30T11:42:08.064Z,1.30
2018-06-30T11:44:36.725Z,1.50
2018-06-30T11:47:05.148Z,1.30
2018-06-30T11:49:33.389Z,1.27
2018-06-30T11:52:01.431Z,1.20
2018-06-30T11:54:29.453Z,1.40
2018-06-30T11:56:57.539Z,1.43
2018-06-30T11:59:25.582Z,1.47
2018-06-30T12:01:53.598Z,1.33
2018-06-30T12:04:21.592Z,1.30
2018-06-30T12:06:49.571Z,1.43
2018-06-30T12:09:17.684Z,1.40
2018-06-30T12:11:45.720Z,1.33
2018-06-30T12:14:13.749Z,1.40
2018-06-30T12:16:41.771Z,1.50
2018-06-30T12:19:09.766Z,1.40
2018-06-30T12:21:37.978Z,1.50
2018-06-30T12:24:06.062Z,1.70
2018-06-30T12:26:34.123Z,1.70
2018-06-30T12:29:02.167Z,1.60
2018-06-30T12:31:30.289Z,1.80
2018-06-30T12:33:58.349Z,1.60
2018-06-30T12:36:26.399Z,1.90
2018-06-30T12:38:54.598Z,1.73
2018-06-30T12:41:22.690Z,1.77
2018-06-30T12:43:50.655Z,1.83
2018-06-30T12:46:18.668Z,1.70
2018-06-30T12:48:46.773Z,1.80
2018-06-30T12:51:14.762Z,1.50
2018-06-30T12:53:42.799Z,1.60
2018-06-30T12:56:10.958Z,1.80
2018-06-30T12:58:39.026Z,1.80
2018-06-30T13:01:07.066Z,1.60
2018-06-30T13:03:35.061Z,1.40
2018-06-30T13:06:03.135Z,1.50
2018-06-30T13:08:31.334Z,1.70
2018-06-30T13:10:59.388Z,1.60
2018-06-30T13:13:27.464Z,1.60
2018-06-30T13:15:55.495Z,1.30
2018-06-30T13:18:23.540Z,1.30
2018-06-30T13:20:51.597Z,1.40
2018-06-30T13:23:19.812Z,1.50
2018-06-30T13:25:47.825Z,1.63
2018-06-30T13:28:15.884Z,1.20
2018-06-30T13:30:43.916Z,1.40
2018-06-30T13:33:12.004Z,1.17
2018-06-30T13:35:40.064Z,1.20
2018-06-30T13:38:08.094Z,1.33
2018-06-30T13:40:36.297Z,1.30
2018-06-30T13:43:04.408Z,1.10
2018-06-30T13:45:32.418Z,1.15
2018-06-30T13:48:00.562Z,1.20
2018-06-30T13:50:28.674Z,1.10
2018-06-30T13:52:56.783Z,1.00
2018-06-30T13:55:24.766Z,1.20
2018-06-30T13:57:52.817Z,1.07
2018-06-30T14:00:20.842Z,1.10
2018-06-30T14:02:48.942Z,1.43
2018-06-30T14:05:16.987Z,1.43
